Time;durP1;ratioP1;P1;durP2;ratioP2;P2;SDS_P1;SDS_P2;PMS_P1;PMS_P2;Temp;Humidity;BMP_temperature;BMP_pressure;BME280_temperature;BME280_humidity;BME280_pressure;Samples;Min_cycle;Max_cycle;Signal;HPM_P1;HPM_P2
2022/09/30 00:00:03;;;;;;;26.33;17.30;;;10.90;99.90;;;;;;5017980;28;20029;-86
2022/09/30 00:02:28;;;;;;;;;;;10.90;99.90;;;;;;5035411;28;20063;-83
2022/09/30 00:04:54;;;;;;;25.60;15.18;;;10.80;99.90;;;;;;5034640;28;20448;-85
2022/09/30 00:07:20;;;;;;;24.73;15.63;;;10.70;99.90;;;;;;5030711;28;20026;-86
2022/09/30 00:09:47;;;;;;;28.85;16.92;;;10.60;99.90;;;;;;5007662;28;20033;-85
2022/09/30 00:12:13;;;;;;;24.58;16.60;;;10.60;99.90;;;;;;5034814;28;20064;-86
2022/09/30 00:14:39;;;;;;;23.45;15.63;;;10.50;99.90;;;;;;5033533;28;20395;-85
2022/09/30 00:17:05;;;;;;;25.67;16.38;;;10.40;99.90;;;;;;5032467;28;20034;-84
2022/09/30 00:19:30;;;;;;;24.85;17.65;;;10.40;99.90;;;;;;5028310;28;20111;-84
2022/09/30 00:21:56;;;;;;;22.92;15.57;;;10.40;99.90;;;;;;5014983;28;20029;-86
2022/09/30 00:24:22;;;;;;;18.60;15.05;;;10.30;99.90;;;;;;5032063;28;20167;-84
2022/09/30 00:26:48;;;;;;;20.42;15.25;;;10.30;99.90;;;;;;5036897;28;20025;-84
2022/09/30 00:29:14;;;;;;;20.30;15.27;;;10.30;99.90;;;;;;5042017;28;20419;-84
2022/09/30 00:31:40;;;;;;;20.35;14.52;;;10.30;99.90;;;;;;5042943;28;20110;-86
2022/09/30 00:34:06;;;;;;;20.55;14.25;;;10.30;99.90;;;;;;5024024;28;20022;-84
2022/09/30 00:36:52;;;;;;;21.40;14.82;;;10.30;99.90;;;;;;5010875;28;20072;-87
2022/09/30 00:39:27;;;;;;;20.48;15.85;;;10.30;99.90;;;;;;5028615;28;20103;-85
2022/09/30 00:41:57;;;;;;;23.30;15.27;;;10.30;99.90;;;;;;5015124;28;20061;-87
2022/09/30 00:45:01;;;;;;;20.63;16.17;;;10.30;99.90;;;;;;5030057;28;20022;-85
2022/09/30 00:47:44;;;;;;;23.48;15.52;;;10.20;99.90;;;;;;4937181;29;20059;-85
2022/09/30 00:50:19;;;;;;;25.63;16.73;;;10.20;99.90;;;;;;4936025;29;20543;-86
2022/09/30 00:52:54;;;;;;;22.45;14.98;;;10.20;99.90;;;;;;4937467;29;20706;-86
2022/09/30 00:55:26;;;;;;;21.05;14.40;;;10.20;99.90;;;;;;4927363;29;20036;-85
2022/09/30 00:57:53;;;;;;;22.92;15.30;;;10.20;99.90;;;;;;4953428;29;20044;-85
2022/09/30 01:00:19;;;;;;;19.83;13.80;;;10.20;99.90;;;;;;4931852;29;20036;-84
2022/09/30 01:02:47;;;;;;;20.45;14.75;;;10.10;99.90;;;;;;4910815;29;20044;-85
2022/09/30 01:05:12;;;;;;;;;;;10.10;99.90;;;;;;4920747;29;20024;-87
2022/09/30 01:07:39;;;;;;;20.17;15.05;;;10.20;99.90;;;;;;4935608;29;20253;-86
2022/09/30 01:10:05;;;;;;;22.48;15.98;;;10.10;99.90;;;;;;4934513;29;20036;-85
2022/09/30 01:12:31;;;;;;;22.83;16.48;;;10.10;99.90;;;;;;4959817;29;20028;-84
2022/09/30 01:14:59;;;;;;;25.92;17.65;;;10.10;99.90;;;;;;4946243;29;20035;-84
2022/09/30 01:17:36;;;;;;;;;;;10.10;99.90;;;;;;4906917;29;20036;-83
2022/09/30 01:20:39;;;;;;;23.55;16.90;;;10.10;99.90;;;;;;4931968;29;19935;-86
2022/09/30 01:23:31;;;;;;;26.48;18.17;;;10.00;99.90;;;;;;5006689;28;20609;-84
2022/09/30 01:26:09;;;;;;;22.52;17.65;;;10.00;99.90;;;;;;5013503;28;20108;-85
2022/09/30 01:29:10;;;;;;;24.05;16.15;;;9.90;99.90;;;;;;4996845;28;20113;-86
2022/09/30 01:31:43;;;;;;;26.83;16.40;;;9.90;99.90;;;;;;5007383;28;20030;-87
2022/09/30 01:34:12;;;;;;;20.77;16.25;;;9.90;99.90;;;;;;5018023;28;20026;-85
2022/09/30 01:37:03;;;;;;;25.42;17.02;;;9.90;99.90;;;;;;5011953;28;20045;-85
2022/09/30 01:39:54;;;;;;;23.77;17.17;;;10.00;99.90;;;;;;5049900;28;20460;-85
2022/09/30 01:42:28;;;;;;;20.67;14.98;;;10.00;99.90;;;;;;5026001;28;20064;-87
2022/09/30 01:45:13;;;;;;;20.92;15.68;;;10.00;99.90;;;;;;5033747;28;20064;-85
2022/09/30 01:48:22;;;;;;;21.05;15.18;;;10.00;99.90;;;;;;5038235;28;20012;-85
2022/09/30 01:51:30;;;;;;;23.17;15.57;;;10.00;99.90;;;;;;5013659;28;20033;-85
2022/09/30 01:54:26;;;;;;;24.30;15.77;;;9.90;99.90;;;;;;5033024;28;20048;-87
2022/09/30 01:56:57;;;;;;;23.17;16.40;;;9.90;99.90;;;;;;5027484;28;20048;-85
2022/09/30 01:59:45;;;;;;;22.42;14.25;;;9.90;99.90;;;;;;5009544;28;20025;-86
2022/09/30 02:02:27;;;;;;;22.98;14.52;;;9.80;99.90;;;;;;5007860;28;20442;-84
2022/09/30 02:05:22;;;;;;;18.98;14.38;;;9.80;99.90;;;;;;5030013;28;20053;-86
2022/09/30 02:07:59;;;;;;;16.27;13.20;;;9.80;99.90;;;;;;5023633;28;20592;-85
2022/09/30 02:10:47;;;;;;;21.38;13.70;;;9.80;99.90;;;;;;4984553;28;20022;-85
2022/09/30 02:14:00;;;;;;;22.45;14.10;;;9.70;99.90;;;;;;5035507;28;20026;-85
2022/09/30 02:17:03;;;;;;;20.35;15.15;;;9.70;99.90;;;;;;4926028;29;20081;-86
2022/09/30 02:19:41;;;;;;;22.08;15.20;;;9.70;99.90;;;;;;4922835;29;20016;-84
2022/09/30 02:22:17;;;;;;;24.90;16.27;;;9.60;99.90;;;;;;4920460;29;20123;-87
2022/09/30 02:24:45;;;;;;;21.55;15.07;;;9.60;99.90;;;;;;4913997;29;20096;-85
2022/09/30 02:27:28;;;;;;;21.35;15.75;;;9.60;99.90;;;;;;4914132;29;20078;-86
2022/09/30 02:30:00;;;;;;;26.23;17.67;;;9.60;99.90;;;;;;4914276;29;20036;-86
2022/09/30 02:32:47;;;;;;;22.88;16.83;;;9.60;99.90;;;;;;4914168;29;20159;-86
2022/09/30 02:35:19;;;;;;;;;;;9.60;99.90;;;;;;4915207;29;20032;-85
2022/09/30 02:37:49;;;;;;;24.50;16.48;;;9.60;99.90;;;;;;4901480;29;19919;-85
2022/09/30 02:40:23;;;;;;;28.13;17.73;;;9.60;99.90;;;;;;4910131;29;20060;-85
2022/09/30 02:42:49;;;;;;;28.52;19.40;;;9.60;99.90;;;;;;4924586;29;20020;-86
2022/09/30 02:45:20;;;;;;;24.70;18.02;;;9.60;99.90;;;;;;4926216;29;20111;-86
2022/09/30 02:48:26;;;;;;;23.40;16.00;;;9.70;99.90;;;;;;4950288;28;20056;-85
2022/09/30 02:51:02;;;;;;;23.10;16.98;;;9.70;99.90;;;;;;4921553;29;20039;-85
2022/09/30 02:53:38;;;;;;;28.00;17.73;;;9.70;99.90;;;;;;4937635;29;20406;-87
2022/09/30 02:56:09;;;;;;;25.00;16.45;;;9.80;99.90;;;;;;4930282;29;20450;-86
2022/09/30 02:58:38;;;;;;;27.02;15.82;;;9.80;99.90;;;;;;4916507;29;20044;-85
2022/09/30 03:01:11;;;;;;;21.08;15.35;;;9.90;99.90;;;;;;4918340;29;20060;-87
2022/09/30 03:03:49;;;;;;;21.85;16.80;;;10.00;99.90;;;;;;4944197;29;20079;-86
2022/09/30 03:06:15;;;;;;;22.30;15.10;;;10.00;99.90;;;;;;4956245;29;20040;-87
2022/09/30 03:08:42;;;;;;;27.05;16.65;;;10.10;99.90;;;;;;4947373;29;20032;-87
2022/09/30 03:11:16;;;;;;;25.25;16.08;;;10.10;99.90;;;;;;4945541;29;20047;-85
2022/09/30 03:14:11;;;;;;;22.05;15.38;;;10.10;99.90;;;;;;4957810;29;20025;-85
2022/09/30 03:17:03;;;;;;;22.63;16.98;;;10.10;99.90;;;;;;4914095;29;20400;-84
2022/09/30 03:19:41;;;;;;;22.75;15.85;;;10.10;99.90;;;;;;4917096;29;20051;-85
2022/09/30 03:22:19;;;;;;;;;;;10.10;99.90;;;;;;4921839;29;20040;-85
2022/09/30 03:24:51;;;;;;;22.63;15.68;;;10.10;99.90;;;;;;4959139;28;19905;-86
2022/09/30 03:27:34;;;;;;;20.45;15.05;;;10.10;99.90;;;;;;5030557;28;20030;-86
2022/09/30 03:30:05;;;;;;;26.00;16.30;;;10.00;99.90;;;;;;5013613;28;20025;-84
2022/09/30 03:32:55;;;;;;;21.90;16.13;;;10.00;99.90;;;;;;5022673;28;20022;-85
2022/09/30 03:35:51;;;;;;;23.15;16.05;;;10.00;99.90;;;;;;5022115;28;20032;-86
2022/09/30 03:38:34;;;;;;;18.65;15.43;;;10.00;99.90;;;;;;5022789;28;20100;-87
2022/09/30 03:41:10;;;;;;;22.60;13.60;;;10.10;99.90;;;;;;5024341;28;20408;-85
2022/09/30 03:43:48;;;;;;;22.90;15.13;;;10.10;99.90;;;;;;5002347;28;20022;-86
2022/09/30 03:46:25;;;;;;;19.52;14.82;;;10.00;99.90;;;;;;5013199;28;20271;-86
2022/09/30 03:48:58;;;;;;;23.55;14.52;;;10.00;99.90;;;;;;5017177;28;20034;-87
2022/09/30 03:51:24;;;;;;;19.88;13.23;;;10.00;99.90;;;;;;5012741;28;20025;-88
2022/09/30 03:53:52;;;;;;;20.27;14.40;;;10.00;99.90;;;;;;5016478;28;20101;-85
2022/09/30 03:56:29;;;;;;;21.67;14.68;;;10.00;99.90;;;;;;5016398;28;20020;-88
2022/09/30 03:58:55;;;;;;;23.77;14.70;;;10.00;99.90;;;;;;5016134;28;20545;-88
2022/09/30 04:01:22;;;;;;;19.02;14.55;;;10.00;99.90;;;;;;5021867;28;20037;-87
2022/09/30 04:03:51;;;;;;;19.35;14.95;;;10.00;99.90;;;;;;5007217;28;20425;-86
2022/09/30 04:06:22;;;;;;;20.15;14.15;;;10.00;99.90;;;;;;5015804;28;20044;-86
2022/09/30 04:08:49;;;;;;;21.13;14.68;;;10.10;99.90;;;;;;5015866;28;20022;-87
2022/09/30 04:11:15;;;;;;;16.95;14.27;;;10.10;99.90;;;;;;5019304;28;20025;-88
2022/09/30 04:13:41;;;;;;;19.23;13.50;;;10.10;99.90;;;;;;5031402;28;20093;-89
2022/09/30 04:16:07;;;;;;;19.10;13.63;;;10.10;99.90;;;;;;5006874;28;20555;-86
2022/09/30 04:18:37;;;;;;;18.15;14.20;;;10.10;99.90;;;;;;5021753;28;20027;-87
2022/09/30 04:21:07;;;;;;;19.05;12.80;;;10.20;99.90;;;;;;5021290;28;20029;-87
2022/09/30 04:23:38;;;;;;;14.80;11.80;;;10.20;99.90;;;;;;5024895;28;20100;-86
2022/09/30 04:26:11;;;;;;;16.67;12.27;;;10.20;99.90;;;;;;5019958;28;20040;-85
2022/09/30 04:28:37;;;;;;;16.35;12.68;;;10.30;99.90;;;;;;5044261;28;20052;-86
2022/09/30 04:31:04;;;;;;;15.95;12.30;;;10.30;99.90;;;;;;5055408;28;20026;-87
2022/09/30 04:33:30;;;;;;;17.00;13.98;;;10.30;99.90;;;;;;5031150;28;20037;-88
2022/09/30 04:35:58;;;;;;;18.92;12.93;;;10.40;99.90;;;;;;5035690;28;20056;-86
2022/09/30 04:38:24;;;;;;;18.35;12.80;;;10.50;99.90;;;;;;5020018;28;20036;-88
2022/09/30 04:40:51;;;;;;;18.20;12.70;;;10.60;99.90;;;;;;5018103;28;20128;-87
2022/09/30 04:43:18;;;;;;;16.17;12.20;;;10.70;99.90;;;;;;5033898;28;20022;-85
2022/09/30 04:45:47;;;;;;;17.90;12.60;;;10.70;99.90;;;;;;5035011;28;20029;-86
2022/09/30 04:48:14;;;;;;;15.13;10.70;;;10.80;99.90;;;;;;5035130;28;20025;-86
2022/09/30 04:50:41;;;;;;;18.58;12.13;;;10.80;99.90;;;;;;5035191;28;20364;-88
2022/09/30 04:53:08;;;;;;;19.70;12.57;;;10.70;99.90;;;;;;5021499;28;20033;-86
2022/09/30 04:55:34;;;;;;;17.25;12.52;;;10.80;99.90;;;;;;5036810;28;20545;-86
2022/09/30 04:58:00;;;;;;;16.83;10.85;;;10.80;99.90;;;;;;5022118;28;20042;-86
2022/09/30 05:00:26;;;;;;;14.00;12.00;;;10.90;99.90;;;;;;5021157;28;20148;-87
2022/09/30 05:02:52;;;;;;;15.05;11.10;;;10.90;99.90;;;;;;5035628;28;20438;-88
2022/09/30 05:05:18;;;;;;;13.77;11.02;;;10.90;99.90;;;;;;5022737;28;20014;-88
2022/09/30 05:07:44;;;;;;;19.00;12.20;;;11.00;99.90;;;;;;5036296;28;20037;-87
2022/09/30 05:10:10;;;;;;;19.23;11.23;;;11.00;99.90;;;;;;5035509;28;20022;-86
2022/09/30 05:12:37;;;;;;;15.40;10.95;;;11.00;99.90;;;;;;5049020;28;20037;-85
2022/09/30 05:15:04;;;;;;;14.03;10.80;;;11.00;99.90;;;;;;5046270;28;20513;-87
2022/09/30 05:17:31;;;;;;;15.30;11.38;;;11.10;99.90;;;;;;5025084;28;20724;-87
2022/09/30 05:20:00;;;;;;;14.40;12.52;;;11.00;99.90;;;;;;5035980;28;20029;-87
2022/09/30 05:22:27;;;;;;;13.90;11.85;;;11.10;99.90;;;;;;5029207;28;20055;-86
2022/09/30 05:24:55;;;;;;;16.88;11.50;;;11.10;99.90;;;;;;5020845;28;20120;-88
2022/09/30 05:27:21;;;;;;;;;;;11.10;99.90;;;;;;5034795;28;20037;-86
2022/09/30 05:29:47;;;;;;;19.30;10.98;;;11.20;99.90;;;;;;5029652;28;19933;-89
2022/09/30 05:32:13;;;;;;;18.02;11.80;;;11.20;99.90;;;;;;5009560;28;20053;-88
2022/09/30 05:34:38;;;;;;;16.20;11.73;;;11.20;99.90;;;;;;5032479;28;20103;-87
2022/09/30 05:37:05;;;;;;;18.15;11.38;;;11.30;99.90;;;;;;5007089;28;20025;-87
2022/09/30 05:39:31;;;;;;;13.93;11.40;;;11.30;99.90;;;;;;5033815;28;20108;-85
2022/09/30 05:41:58;;;;;;;15.35;10.63;;;11.30;99.90;;;;;;5037682;28;20045;-86
2022/09/30 05:44:24;;;;;;;15.90;11.18;;;11.30;99.90;;;;;;5037003;28;20030;-85
2022/09/30 05:46:50;;;;;;;14.20;11.75;;;11.40;99.90;;;;;;5017381;28;20030;-87
2022/09/30 05:49:16;;;;;;;13.52;10.18;;;11.40;99.90;;;;;;5002156;28;20033;-87
2022/09/30 05:51:42;;;;;;;17.92;12.23;;;11.50;99.90;;;;;;5017404;28;20018;-87
2022/09/30 05:54:11;;;;;;;16.92;11.07;;;11.60;99.90;;;;;;5035983;28;20077;-86
2022/09/30 05:56:37;;;;;;;14.95;11.40;;;11.70;99.90;;;;;;5031409;28;20510;-88
2022/09/30 05:59:06;;;;;;;14.90;10.65;;;11.80;99.90;;;;;;4997833;28;20026;-87
2022/09/30 06:01:33;;;;;;;16.77;10.75;;;11.90;99.90;;;;;;4981902;28;20443;-87
2022/09/30 06:03:59;;;;;;;13.05;9.85;;;11.90;99.90;;;;;;5027977;28;20022;-87
2022/09/30 06:06:25;;;;;;;16.40;11.45;;;12.00;99.90;;;;;;5011941;28;20053;-87
2022/09/30 06:08:51;;;;;;;23.30;11.60;;;11.90;99.90;;;;;;5015807;28;20056;-90
2022/09/30 06:11:19;;;;;;;15.82;11.88;;;12.00;99.90;;;;;;5011899;28;20045;-89
2022/09/30 06:13:46;;;;;;;14.25;10.45;;;12.00;99.90;;;;;;5028905;28;20057;-87
2022/09/30 06:16:13;;;;;;;17.95;10.35;;;12.10;99.90;;;;;;5032704;28;20018;-88
2022/09/30 06:18:42;;;;;;;17.88;11.52;;;12.20;99.90;;;;;;5032432;28;20122;-87
2022/09/30 06:21:11;;;;;;;18.98;10.68;;;12.30;99.90;;;;;;5007139;28;20018;-88
2022/09/30 06:23:38;;;;;;;16.08;11.88;;;12.50;99.50;;;;;;5019501;28;20034;-88
2022/09/30 06:26:13;;;;;;;12.32;10.63;;;12.60;99.10;;;;;;5019407;28;20119;-89
2022/09/30 06:28:39;;;;;;;17.90;11.32;;;12.80;98.80;;;;;;5021865;28;20025;-87
2022/09/30 06:31:06;;;;;;;17.13;12.53;;;12.90;98.20;;;;;;5042422;28;20117;-88
2022/09/30 06:33:32;;;;;;;20.58;12.63;;;13.00;97.90;;;;;;5040719;28;20029;-88
2022/09/30 06:35:58;;;;;;;14.68;12.07;;;13.20;97.70;;;;;;5038296;28;20025;-87
2022/09/30 06:38:26;;;;;;;15.10;11.95;;;13.30;97.40;;;;;;5042742;28;20037;-88
2022/09/30 06:40:51;;;;;;;;;;;13.50;97.20;;;;;;5010751;28;20043;-88
2022/09/30 06:43:18;;;;;;;22.02;12.65;;;13.60;97.70;;;;;;4998672;28;19909;-89
2022/09/30 06:45:50;;;;;;;18.77;11.93;;;13.80;97.00;;;;;;5023557;28;20033;-87
2022/09/30 06:48:17;;;;;;;18.13;11.40;;;14.10;96.00;;;;;;5000380;28;20022;-90
2022/09/30 06:50:44;;;;;;;19.80;12.13;;;14.30;95.30;;;;;;5008919;28;20018;-85
2022/09/30 06:53:11;;;;;;;;;;;14.40;94.80;;;;;;4994103;28;20251;-87
2022/09/30 06:55:39;;;;;;;28.13;14.00;;;14.50;95.40;;;;;;4987831;28;20060;-89
2022/09/30 06:58:12;;;;;;;;;;;14.50;94.60;;;;;;5004568;28;20057;-89
2022/09/30 07:00:38;;;;;;;17.92;12.20;;;14.60;94.80;;;;;;4998293;28;20000;-86
2022/09/30 07:03:10;;;;;;;18.13;11.80;;;14.60;94.20;;;;;;5001641;28;20041;-87
2022/09/30 07:05:36;;;;;;;19.33;12.50;;;14.70;93.90;;;;;;5002369;28;20022;-86
2022/09/30 07:08:03;;;;;;;16.80;12.38;;;14.80;93.50;;;;;;5002200;28;20056;-85
2022/09/30 07:10:29;;;;;;;14.93;11.70;;;15.00;93.10;;;;;;5004050;28;20031;-86
2022/09/30 07:12:57;;;;;;;21.67;13.63;;;15.20;92.70;;;;;;5002288;28;20106;-87
2022/09/30 07:15:23;;;;;;;19.55;13.95;;;15.30;92.50;;;;;;5025675;28;20031;-87
2022/09/30 07:17:55;;;;;;;19.55;13.00;;;15.60;91.80;;;;;;5015181;28;20051;-86
2022/09/30 07:20:21;;;;;;;21.27;13.18;;;15.70;91.40;;;;;;5011604;28;20031;-88
2022/09/30 07:22:47;;;;;;;19.63;11.77;;;15.90;90.90;;;;;;4999313;28;20085;-86
2022/09/30 07:25:17;;;;;;;19.38;12.13;;;15.90;90.60;;;;;;5009978;28;20022;-87
2022/09/30 07:27:43;;;;;;;25.63;12.95;;;16.00;90.50;;;;;;5018420;28;20026;-86
2022/09/30 07:30:10;;;;;;;19.65;13.07;;;16.50;90.70;;;;;;5018039;28;20028;-87
2022/09/30 07:32:36;;;;;;;25.33;13.20;;;17.40;88.80;;;;;;5012185;28;20078;-83
2022/09/30 07:35:02;;;;;;;20.48;11.88;;;18.10;85.20;;;;;;4996689;28;20313;-84
2022/09/30 07:37:34;;;;;;;18.80;11.20;;;18.80;82.40;;;;;;4989811;28;20073;-89
2022/09/30 07:40:05;;;;;;;16.08;11.45;;;19.50;79.10;;;;;;5006054;28;20066;-90
2022/09/30 07:42:31;;;;;;;22.17;16.67;;;19.80;76.80;;;;;;5013551;28;20069;-88
2022/09/30 07:45:00;;;;;;;26.50;13.68;;;20.00;75.50;;;;;;5032077;28;20391;-92
2022/09/30 07:47:26;;;;;;;17.83;12.35;;;20.10;74.20;;;;;;5019102;28;20022;-91
2022/09/30 07:49:52;;;;;;;17.92;12.10;;;20.30;73.30;;;;;;5023751;28;20025;-91
2022/09/30 07:52:19;;;;;;;17.17;11.25;;;20.40;72.30;;;;;;5004449;28;20030;-88
2022/09/30 07:54:45;;;;;;;20.10;12.48;;;20.30;71.40;;;;;;4974379;28;20035;-91
2022/09/30 07:57:11;;;;;;;21.67;15.13;;;20.30;72.10;;;;;;5018545;28;20045;-88
2022/09/30 07:59:39;;;;;;;27.17;12.85;;;20.70;71.30;;;;;;5050139;28;20014;-89
2022/09/30 08:02:07;;;;;;;18.55;12.13;;;21.40;69.10;;;;;;5019908;28;20027;-90
2022/09/30 08:04:33;;;;;;;14.80;11.45;;;22.10;67.30;;;;;;5042803;28;20037;-88
2022/09/30 08:07:01;;;;;;;16.38;12.70;;;22.10;64.90;;;;;;5032213;28;20434;-90
2022/09/30 08:09:28;;;;;;;;;;;21.60;65.60;;;;;;5001937;28;20025;-89
2022/09/30 08:11:54;;;;;;;16.35;12.15;;;20.90;68.80;;;;;;5015465;28;19905;-88
2022/09/30 08:14:25;;;;;;;17.80;11.80;;;20.50;69.60;;;;;;5000795;28;20044;-90
2022/09/30 08:16:52;;;;;;;19.42;12.65;;;19.90;69.80;;;;;;5023079;28;20484;-82
2022/09/30 08:19:21;;;;;;;20.57;12.37;;;19.20;71.90;;;;;;5009556;28;20737;-82
2022/09/30 08:21:47;;;;;;;17.20;12.15;;;18.80;73.60;;;;;;5007465;28;20266;-84
2022/09/30 08:24:14;;;;;;;16.63;12.32;;;18.50;74.50;;;;;;5030262;28;20025;-84
2022/09/30 08:26:40;;;;;;;19.10;12.97;;;18.40;75.60;;;;;;5016390;28;20372;-85
2022/09/30 08:29:13;;;;;;;17.65;12.07;;;18.70;75.80;;;;;;5006693;28;20319;-87
2022/09/30 08:31:40;;;;;;;17.27;11.90;;;19.00;75.70;;;;;;5020076;28;20018;-86
2022/09/30 08:34:06;;;;;;;21.40;12.23;;;19.80;74.30;;;;;;5015259;28;20497;-86
2022/09/30 08:36:31;;;;;;;19.10;12.77;;;20.40;71.80;;;;;;5019201;28;20341;-84
2022/09/30 08:38:58;;;;;;;21.27;14.65;;;20.70;70.60;;;;;;5034353;28;20037;-83
2022/09/30 08:41:32;;;;;;;22.83;13.57;;;20.80;69.60;;;;;;5004456;28;20038;-84
2022/09/30 08:44:19;;;;;;;16.95;13.23;;;20.80;69.70;;;;;;5004296;28;20025;-84
2022/09/30 08:46:59;;;;;;;20.92;13.65;;;20.90;69.80;;;;;;5015490;28;20019;-84
2022/09/30 08:49:43;;;;;;;18.73;13.52;;;20.60;69.60;;;;;;5017221;28;20655;-84
2022/09/30 08:52:23;;;;;;;16.80;13.82;;;20.10;70.60;;;;;;5004377;28;20037;-83
2022/09/30 08:54:52;;;;;;;19.52;13.23;;;19.60;72.40;;;;;;5015867;28;20076;-89
2022/09/30 08:57:19;;;;;;;21.70;14.50;;;19.40;73.70;;;;;;5027542;28;20498;-89
2022/09/30 08:59:54;;;;;;;25.67;15.40;;;19.30;74.30;;;;;;5015412;28;20026;-87
2022/09/30 09:02:32;;;;;;;24.08;15.02;;;19.30;74.90;;;;;;5005628;28;20089;-91
2022/09/30 09:05:01;;;;;;;16.95;13.35;;;19.20;75.20;;;;;;5013421;28;20026;-88
2022/09/30 09:07:47;;;;;;;23.67;14.75;;;19.40;74.90;;;;;;5008316;28;20022;-90
2022/09/30 09:10:34;;;;;;;22.63;15.23;;;19.50;74.70;;;;;;5027853;28;20018;-87
2022/09/30 09:13:15;;;;;;;19.42;13.68;;;19.50;75.40;;;;;;5004897;28;20045;-88
2022/09/30 09:15:49;;;;;;;18.45;14.27;;;20.40;75.80;;;;;;5012476;28;20499;-87
2022/09/30 09:18:26;;;;;;;21.75;15.15;;;21.40;71.50;;;;;;5035044;28;20093;-89
2022/09/30 09:20:58;;;;;;;20.90;15.30;;;21.80;69.40;;;;;;5047424;28;20002;-89
2022/09/30 09:23:26;;;;;;;19.35;14.57;;;21.80;69.50;;;;;;5016324;28;20054;-87
2022/09/30 09:25:54;;;;;;;;;;;21.60;69.20;;;;;;5031768;28;20048;-85
2022/09/30 09:28:39;;;;;;;19.45;14.60;;;21.30;70.90;;;;;;5032040;28;20436;-83
2022/09/30 09:31:10;;;;;;;17.67;15.23;;;20.90;70.90;;;;;;5031834;28;20018;-84
2022/09/30 09:33:41;;;;;;;23.13;15.38;;;20.40;72.20;;;;;;5027326;28;20502;-88
2022/09/30 09:36:19;;;;;;;20.88;16.50;;;20.00;73.80;;;;;;5015706;28;20029;-86
2022/09/30 09:39:12;;;;;;;26.23;16.10;;;19.40;75.50;;;;;;5002700;28;20034;-87
2022/09/30 09:41:49;;;;;;;25.95;16.05;;;18.80;77.70;;;;;;5014570;28;20414;-86
2022/09/30 09:44:26;;;;;;;24.40;16.98;;;18.50;79.50;;;;;;5015876;28;20034;-84
2022/09/30 09:47:03;;;;;;;24.20;18.00;;;18.50;80.40;;;;;;5004872;28;20030;-86
2022/09/30 09:49:42;;;;;;;27.67;18.23;;;18.50;81.00;;;;;;5004551;28;20491;-85
2022/09/30 09:52:28;;;;;;;29.85;18.75;;;18.60;81.30;;;;;;5027629;28;20074;-87
2022/09/30 09:54:55;;;;;;;24.92;17.83;;;18.80;81.20;;;;;;5023709;28;20033;-85
2022/09/30 09:57:31;;;;;;;23.42;16.67;;;18.80;81.30;;;;;;5018311;28;20045;-89
2022/09/30 10:03:07;;;;;;;22.27;16.80;;;18.70;81.80;;;;;;5008720;28;20096;-87
2022/09/30 10:05:38;;;;;;;24.67;17.25;;;18.90;82.50;;;;;;5003138;28;20069;-88
2022/09/30 10:08:18;;;;;;;24.88;17.33;;;19.30;81.50;;;;;;5021257;28;20037;-90
2022/09/30 10:10:56;;;;;;;24.15;19.02;;;19.70;80.00;;;;;;5023692;28;20112;-86
2022/09/30 10:13:29;;;;;;;24.15;19.08;;;19.70;79.50;;;;;;5029672;28;20022;-85
2022/09/30 10:15:57;;;;;;;26.73;19.00;;;19.60;79.60;;;;;;5029554;28;20021;-82
2022/09/30 10:18:37;;;;;;;21.30;17.63;;;19.50;80.40;;;;;;5014837;28;20030;-83
2022/09/30 10:21:08;;;;;;;25.48;17.95;;;19.60;80.30;;;;;;5017158;28;20018;-84
2022/09/30 10:23:39;;;;;;;26.00;18.58;;;19.60;80.40;;;;;;4996424;28;20068;-83
2022/09/30 10:26:16;;;;;;;24.65;19.10;;;19.50;80.60;;;;;;5004232;28;20144;-83
2022/09/30 10:28:52;;;;;;;29.75;19.50;;;19.50;80.90;;;;;;5006822;28;20035;-82
2022/09/30 10:31:37;;;;;;;32.42;19.65;;;19.40;81.30;;;;;;5018049;28;20076;-83
2022/09/30 10:34:21;;;;;;;25.48;17.80;;;19.30;81.40;;;;;;5016192;28;20164;-82
2022/09/30 10:36:47;;;;;;;25.25;17.70;;;18.70;83.10;;;;;;5007824;28;20108;-81
2022/09/30 10:39:38;;;;;;;32.10;19.90;;;18.50;84.70;;;;;;5019547;28;20030;-85
2022/09/30 10:42:18;;;;;;;25.48;17.95;;;18.20;85.90;;;;;;5021878;28;20092;-88
2022/09/30 10:44:55;;;;;;;28.33;18.70;;;18.00;87.60;;;;;;5015803;28;20014;-90
2022/09/30 10:47:25;;;;;;;24.27;18.02;;;17.80;88.20;;;;;;4999509;28;20026;-88
2022/09/30 10:50:05;;;;;;;31.73;21.05;;;17.70;89.20;;;;;;5026226;28;20025;-89
2022/09/30 10:52:53;;;;;;;22.45;17.17;;;17.60;90.00;;;;;;5020544;28;20056;-90
2022/09/30 10:55:19;;;;;;;23.73;18.60;;;17.50;90.00;;;;;;5021541;28;20026;-87
2022/09/30 10:57:47;;;;;;;28.08;18.15;;;17.30;90.50;;;;;;5019388;28;20052;-89
2022/09/30 11:00:20;;;;;;;26.92;19.17;;;17.30;90.60;;;;;;5015559;28;20018;-90
2022/09/30 11:02:57;;;;;;;25.60;17.75;;;17.40;90.80;;;;;;4999018;28;20026;-90
2022/09/30 11:05:27;;;;;;;;;;;17.60;90.80;;;;;;5015468;28;20479;-89
2022/09/30 11:08:01;;;;;;;23.27;16.92;;;17.90;90.60;;;;;;5013755;28;19905;-88
2022/09/30 11:10:39;;;;;;;27.08;17.95;;;18.10;90.20;;;;;;5003417;28;20075;-88
2022/09/30 11:13:35;;;;;;;22.63;16.48;;;18.30;89.80;;;;;;5004378;28;20026;-90
2022/09/30 11:16:07;;;;;;;19.98;15.45;;;18.30;88.90;;;;;;5037999;28;20022;-87
2022/09/30 11:18:58;;;;;;;20.30;15.88;;;18.30;88.90;;;;;;5016261;28;20046;-87
2022/09/30 11:21:31;;;;;;;22.75;16.77;;;18.30;88.40;;;;;;5012244;28;20045;-90
2022/09/30 11:24:06;;;;;;;22.02;15.90;;;18.20;88.50;;;;;;5023939;28;20109;-84
2022/09/30 11:26:32;;;;;;;22.83;16.55;;;18.20;88.70;;;;;;5045288;28;20030;-87
2022/09/30 11:29:25;;;;;;;25.00;18.20;;;18.30;88.70;;;;;;5042972;28;20084;-88
2022/09/30 11:32:05;;;;;;;25.67;18.73;;;18.50;88.70;;;;;;5022150;28;20069;-87
2022/09/30 11:34:53;;;;;;;25.00;17.48;;;18.70;88.40;;;;;;5023954;28;20033;-86
2022/09/30 11:37:39;;;;;;;29.73;18.95;;;18.70;87.80;;;;;;5000536;28;20030;-86
2022/09/30 11:40:26;;;;;;;25.45;17.63;;;18.70;87.50;;;;;;5008005;28;20022;-87
2022/09/30 11:43:20;;;;;;;22.25;17.45;;;18.60;87.30;;;;;;5035902;28;20039;-86
2022/09/30 11:46:09;;;;;;;25.58;19.00;;;18.30;88.40;;;;;;5036754;28;20026;-85
2022/09/30 11:48:56;;;;;;;26.55;18.38;;;18.20;89.10;;;;;;4998733;28;20058;-85
2022/09/30 11:51:50;;;;;;;27.77;17.13;;;18.20;89.30;;;;;;5017337;28;20033;-86
2022/09/30 11:54:32;;;;;;;30.95;18.75;;;18.20;89.10;;;;;;5016752;28;20057;-86
2022/09/30 11:57:13;;;;;;;24.50;17.42;;;18.30;89.00;;;;;;5002807;28;20025;-83
2022/09/30 11:59:52;;;;;;;24.08;16.27;;;18.30;88.60;;;;;;5017146;28;20030;-92
2022/09/30 12:02:59;;;;;;;23.17;18.13;;;18.40;88.70;;;;;;5029061;28;20123;-90
2022/09/30 12:05:53;;;;;;;21.77;17.17;;;18.50;88.30;;;;;;5013575;28;20029;-84
2022/09/30 12:08:28;;;;;;;20.67;15.77;;;18.40;88.00;;;;;;5025628;28;20479;-85
2022/09/30 12:11:07;;;;;;;21.13;15.90;;;18.30;88.30;;;;;;5029451;28;20033;-86
2022/09/30 12:14:03;;;;;;;21.30;17.00;;;18.10;89.10;;;;;;5013579;28;20160;-89
2022/09/30 12:16:33;;;;;;;22.63;15.10;;;18.20;89.60;;;;;;5012354;28;20080;-90
2022/09/30 12:19:25;;;;;;;22.17;15.95;;;18.10;89.70;;;;;;5000350;28;20046;-89
2022/09/30 12:22:39;;;;;;;21.90;16.35;;;17.90;90.10;;;;;;5015093;28;20030;-90
2022/09/30 12:25:39;;;;;;;27.40;18.63;;;17.80;90.40;;;;;;4937759;29;20024;-90
2022/09/30 12:31:50;;;;;;;23.13;18.52;;;17.80;90.60;;;;;;4942683;29;20038;-88
2022/09/30 12:34:40;;;;;;;29.92;18.63;;;17.80;90.70;;;;;;4939997;29;20038;-86
2022/09/30 12:37:27;;;;;;;26.55;17.65;;;17.80;90.90;;;;;;4938200;29;20076;-85
2022/09/30 12:39:58;;;;;;;27.05;17.00;;;17.90;90.90;;;;;;4938815;29;20028;-89
2022/09/30 12:43:00;;;;;;;23.27;16.42;;;17.80;91.00;;;;;;4939035;29;20048;-88
2022/09/30 12:46:01;;;;;;;25.35;17.23;;;17.70;91.30;;;;;;4903248;29;20036;-89
2022/09/30 12:48:36;;;;;;;26.13;15.60;;;17.60;91.50;;;;;;4916805;28;20032;-87
2022/09/30 12:51:05;;;;;;;23.80;17.02;;;17.60;91.60;;;;;;4936667;29;20026;-89
2022/09/30 12:53:35;;;;;;;22.23;16.92;;;17.70;91.80;;;;;;4931425;29;20620;-87
2022/09/30 12:56:08;;;;;;;25.63;14.88;;;17.80;91.70;;;;;;4987378;28;20041;-87
2022/09/30 12:58:47;;;;;;;20.63;15.55;;;18.00;91.30;;;;;;5023134;28;20034;-88
2022/09/30 13:01:29;;;;;;;23.83;15.15;;;18.10;91.30;;;;;;5013249;28;20026;-87
2022/09/30 13:04:00;;;;;;;18.73;14.90;;;18.40;90.90;;;;;;5024889;28;20116;-86
2022/09/30 13:06:47;;;;;;;27.40;16.08;;;18.30;90.40;;;;;;5028043;28;20022;-87
2022/09/30 13:09:15;;;;;;;20.70;15.52;;;18.10;90.70;;;;;;5015019;28;20113;-87
2022/09/30 13:11:45;;;;;;;20.58;13.88;;;18.00;91.00;;;;;;5027010;28;20025;-84